KISW/ISW METAR and TAF weather

Enter ICAO airport designator
Station Type Date Time Source
KISW METAR 2022/06/30 13:54 UTC NOAA

KISW 301354Z AUTO 22007KT 10SM CLR 23/17 A2995 RMK AO2 SLP138 T02280167


Station Type Date Time Source
KISW Decoded METAR 2022/06/30 13:54 UTC NOAA

WI RAPIDS ALEXANDER FIELD, WI, United States (KISW) 44-22N 89-50W 307M
Jun 30, 2022 - 09:54 AM EDT / 2022.06.30 1354 UTC
Wind: from the SW (220 degrees) at 8 MPH (7 KT):0
Visibility: 10 mile(s):0
Sky conditions: clear
Temperature: 73.0 F (22.8 C)
Dew Point: 62.1 F (16.7 C)
Relative Humidity: 68%
Pressure (altimeter): 29.95 in. Hg (1014 hPa)
ob: KISW 301354Z AUTO 22007KT 10SM CLR 23/17 A2995 RMK AO2 SLP138 T02280167
cycle: 14

Station Type Date Time Source
KISW TAF UTC NOAA

Error!

Example: see airport list